INDIA METEOROLOGICAL DEPARTMENT, R.M.C. NEW DELHI
Dated:21 - 2 - 2019
METARS OF ALTERNATE AIRPORTS
Delhi      
VIDP 211130Z 10008KT 4000 HZ SCT040 BKN100 26/15 Q1014 NOSIG=
Amritsar   
VIAR 211130Z 32005KT 3500 HZ SCT035 SCT080 19/14 Q1016 NOSIG=
Lucknow    
VILK 211130Z 10004KT 3000 HZ SCT100 SCT200 27/14 Q1014 NOSIG=
Jaipur     
VIJP 211130Z 26011KT 5000 HZ FEW035 SCT100 30/06 Q1013 NOSIG=
Ahmedabad  
VAAH 211130Z 32005KT 6000 NSC 31/15 Q1014 NOSIG=
Udaipur    
VAUD 211100Z 25008KT 6000 FEW100 32/04 Q1015 NOSIG=
Mumbai     
VABB 211130Z 29010KT 5000 HZ NSC 28/20 Q1014 NOSIG=